sensor_id;sensor_type;location;lat;lon;timestamp;temperature;humidity
16172;DHT22;8192;53.596;10.166;2023-03-01T00:00:06;-3.70;99.90
16172;DHT22;8192;53.596;10.166;2023-03-01T00:02:35;-3.70;99.90
16172;DHT22;8192;53.596;10.166;2023-03-01T00:05:03;-3.70;99.90
16172;DHT22;8192;53.596;10.166;2023-03-01T00:07:30;-3.70;99.90
16172;DHT22;8192;53.596;10.166;2023-03-01T00:09:57;-3.80;99.90
16172;DHT22;8192;53.596;10.166;2023-03-01T00:12:24;-3.80;99.90
16172;DHT22;8192;53.596;10.166;2023-03-01T00:14:51;-3.90;99.90
16172;DHT22;8192;53.596;10.166;2023-03-01T00:17:18;-4.00;99.90
16172;DHT22;8192;53.596;10.166;2023-03-01T00:19:47;-4.10;99.90
16172;DHT22;8192;53.596;10.166;2023-03-01T00:22:14;-4.10;99.90
16172;DHT22;8192;53.596;10.166;2023-03-01T00:24:41;-4.20;99.90
16172;DHT22;8192;53.596;10.166;2023-03-01T00:27:12;-4.10;99.90
16172;DHT22;8192;53.596;10.166;2023-03-01T00:29:43;-4.10;99.90
16172;DHT22;8192;53.596;10.166;2023-03-01T00:32:10;-4.00;99.90
16172;DHT22;8192;53.596;10.166;2023-03-01T00:34:38;-3.90;99.90
16172;DHT22;8192;53.596;10.166;2023-03-01T00:37:06;-3.90;99.90
16172;DHT22;8192;53.596;10.166;2023-03-01T00:39:33;-3.90;99.90
16172;DHT22;8192;53.596;10.166;2023-03-01T00:42:00;-3.90;99.90
16172;DHT22;8192;53.596;10.166;2023-03-01T00:44:27;-4.00;99.90
16172;DHT22;8192;53.596;10.166;2023-03-01T00:46:55;-4.10;99.90
16172;DHT22;8192;53.596;10.166;2023-03-01T00:49:22;-4.20;99.90
16172;DHT22;8192;53.596;10.166;2023-03-01T00:51:59;-4.20;99.90
16172;DHT22;8192;53.596;10.166;2023-03-01T00:54:27;-4.20;99.90
16172;DHT22;8192;53.596;10.166;2023-03-01T00:56:54;-4.10;99.90
16172;DHT22;8192;53.596;10.166;2023-03-01T00:59:21;-4.10;99.90
16172;DHT22;8192;53.596;10.166;2023-03-01T01:01:49;-4.10;99.90
16172;DHT22;8192;53.596;10.166;2023-03-01T01:04:16;-4.10;99.90
16172;DHT22;8192;53.596;10.166;2023-03-01T01:06:44;-4.10;99.90
16172;DHT22;8192;53.596;10.166;2023-03-01T01:09:13;-4.10;99.90
16172;DHT22;8192;53.596;10.166;2023-03-01T01:11:44;-4.10;99.90
16172;DHT22;8192;53.596;10.166;2023-03-01T01:14:11;-4.20;99.90
16172;DHT22;8192;53.596;10.166;2023-03-01T01:16:38;-4.20;99.90
16172;DHT22;8192;53.596;10.166;2023-03-01T01:19:06;-4.20;99.90
16172;DHT22;8192;53.596;10.166;2023-03-01T01:21:33;-4.10;99.90
16172;DHT22;8192;53.596;10.166;2023-03-01T01:24:00;-4.00;99.90
16172;DHT22;8192;53.596;10.166;2023-03-01T01:26:31;-3.80;99.90
16172;DHT22;8192;53.596;10.166;2023-03-01T01:29:00;-3.80;99.90
16172;DHT22;8192;53.596;10.166;2023-03-01T01:31:28;-3.70;99.90
16172;DHT22;8192;53.596;10.166;2023-03-01T01:33:56;-3.70;99.90
16172;DHT22;8192;53.596;10.166;2023-03-01T01:36:23;-3.80;99.90
16172;DHT22;8192;53.596;10.166;2023-03-01T01:38:50;-3.80;99.90
16172;DHT22;8192;53.596;10.166;2023-03-01T01:41:19;-3.90;99.90
16172;DHT22;8192;53.596;10.166;2023-03-01T01:43:48;-4.00;99.90
16172;DHT22;8192;53.596;10.166;2023-03-01T01:46:23;-4.10;99.90
16172;DHT22;8192;53.596;10.166;2023-03-01T01:48:55;-4.20;99.90
16172;DHT22;8192;53.596;10.166;2023-03-01T01:51:25;-4.20;99.90
16172;DHT22;8192;53.596;10.166;2023-03-01T01:53:59;-4.20;99.90
16172;DHT22;8192;53.596;10.166;2023-03-01T01:56:28;-4.30;99.90
16172;DHT22;8192;53.596;10.166;2023-03-01T01:58:56;-4.30;99.90
16172;DHT22;8192;53.596;10.166;2023-03-01T02:01:39;-4.20;99.90
16172;DHT22;8192;53.596;10.166;2023-03-01T02:04:06;-4.30;99.90
16172;DHT22;8192;53.596;10.166;2023-03-01T02:06:37;-4.30;99.90
16172;DHT22;8192;53.596;10.166;2023-03-01T02:09:09;-4.30;99.90
16172;DHT22;8192;53.596;10.166;2023-03-01T02:11:38;-4.30;99.90
16172;DHT22;8192;53.596;10.166;2023-03-01T02:14:05;-4.30;99.90
16172;DHT22;8192;53.596;10.166;2023-03-01T02:16:34;-4.20;99.90
16172;DHT22;8192;53.596;10.166;2023-03-01T02:19:03;-4.10;99.90
16172;DHT22;8192;53.596;10.166;2023-03-01T02:21:38;-4.10;99.90
16172;DHT22;8192;53.596;10.166;2023-03-01T02:24:17;-4.00;99.90
16172;DHT22;8192;53.596;10.166;2023-03-01T02:26:51;-4.10;99.90
16172;DHT22;8192;53.596;10.166;2023-03-01T02:29:20;-4.10;99.90
16172;DHT22;8192;53.596;10.166;2023-03-01T02:31:48;-4.10;99.90
16172;DHT22;8192;53.596;10.166;2023-03-01T02:34:18;-4.20;99.90
16172;DHT22;8192;53.596;10.166;2023-03-01T02:36:48;-4.30;99.90
16172;DHT22;8192;53.596;10.166;2023-03-01T02:39:19;-4.40;99.90
16172;DHT22;8192;53.596;10.166;2023-03-01T02:41:54;-4.40;99.90
16172;DHT22;8192;53.596;10.166;2023-03-01T02:44:24;-4.40;99.90
16172;DHT22;8192;53.596;10.166;2023-03-01T02:46:53;-4.40;99.90
16172;DHT22;8192;53.596;10.166;2023-03-01T02:49:25;-4.30;99.90
16172;DHT22;8192;53.596;10.166;2023-03-01T02:52:01;-4.20;99.90
16172;DHT22;8192;53.596;10.166;2023-03-01T02:54:38;-4.20;99.90
16172;DHT22;8192;53.596;10.166;2023-03-01T02:57:08;-4.20;99.90
16172;DHT22;8192;53.596;10.166;2023-03-01T02:59:37;-4.30;99.90
16172;DHT22;8192;53.596;10.166;2023-03-01T03:02:06;-4.30;99.90
16172;DHT22;8192;53.596;10.166;2023-03-01T03:04:34;-4.30;99.90
16172;DHT22;8192;53.596;10.166;2023-03-01T03:07:01;-4.30;99.90
16172;DHT22;8192;53.596;10.166;2023-03-01T03:09:28;-4.30;99.90
16172;DHT22;8192;53.596;10.166;2023-03-01T03:11:55;-4.30;99.90
16172;DHT22;8192;53.596;10.166;2023-03-01T03:14:22;-4.20;99.90
16172;DHT22;8192;53.596;10.166;2023-03-01T03:16:50;-4.20;99.90
16172;DHT22;8192;53.596;10.166;2023-03-01T03:19:18;-4.10;99.90
16172;DHT22;8192;53.596;10.166;2023-03-01T03:21:46;-4.00;99.90
16172;DHT22;8192;53.596;10.166;2023-03-01T03:24:13;-3.80;99.90
16172;DHT22;8192;53.596;10.166;2023-03-01T03:26:40;-3.70;99.90
16172;DHT22;8192;53.596;10.166;2023-03-01T03:29:07;-3.50;99.90
16172;DHT22;8192;53.596;10.166;2023-03-01T03:31:34;-3.30;99.90
16172;DHT22;8192;53.596;10.166;2023-03-01T03:34:02;-3.20;99.90
16172;DHT22;8192;53.596;10.166;2023-03-01T03:36:29;-3.00;99.90
16172;DHT22;8192;53.596;10.166;2023-03-01T03:38:56;-2.80;99.90
16172;DHT22;8192;53.596;10.166;2023-03-01T03:41:23;-2.70;99.90
16172;DHT22;8192;53.596;10.166;2023-03-01T03:43:50;-2.60;99.90
16172;DHT22;8192;53.596;10.166;2023-03-01T03:46:18;-2.60;99.90
16172;DHT22;8192;53.596;10.166;2023-03-01T03:48:45;-2.50;99.90
16172;DHT22;8192;53.596;10.166;2023-03-01T03:51:15;-2.40;99.90
16172;DHT22;8192;53.596;10.166;2023-03-01T03:53:43;-2.30;99.90
16172;DHT22;8192;53.596;10.166;2023-03-01T03:56:11;-2.30;99.90
16172;DHT22;8192;53.596;10.166;2023-03-01T03:58:38;-2.20;99.90
16172;DHT22;8192;53.596;10.166;2023-03-01T04:01:05;-2.20;99.90
16172;DHT22;8192;53.596;10.166;2023-03-01T04:03:33;-2.20;99.90
16172;DHT22;8192;53.596;10.166;2023-03-01T04:06:02;-2.10;99.90
16172;DHT22;8192;53.596;10.166;2023-03-01T04:08:31;-2.10;99.90
16172;DHT22;8192;53.596;10.166;2023-03-01T04:10:59;-2.10;99.90
16172;DHT22;8192;53.596;10.166;2023-03-01T04:13:47;-2.00;99.90
16172;DHT22;8192;53.596;10.166;2023-03-01T04:16:15;-1.90;99.90
16172;DHT22;8192;53.596;10.166;2023-03-01T04:18:42;-1.90;99.90
16172;DHT22;8192;53.596;10.166;2023-03-01T04:21:09;-1.90;99.90
16172;DHT22;8192;53.596;10.166;2023-03-01T04:23:38;-1.80;99.90
16172;DHT22;8192;53.596;10.166;2023-03-01T04:26:06;-1.80;99.90
16172;DHT22;8192;53.596;10.166;2023-03-01T04:28:35;-1.80;99.90
16172;DHT22;8192;53.596;10.166;2023-03-01T04:31:04;-1.80;99.90
16172;DHT22;8192;53.596;10.166;2023-03-01T04:33:39;-1.80;99.90
16172;DHT22;8192;53.596;10.166;2023-03-01T04:36:07;-1.70;99.90
16172;DHT22;8192;53.596;10.166;2023-03-01T04:38:35;-1.60;99.90
16172;DHT22;8192;53.596;10.166;2023-03-01T04:41:05;-1.50;99.90
16172;DHT22;8192;53.596;10.166;2023-03-01T04:43:39;-1.50;99.90
16172;DHT22;8192;53.596;10.166;2023-03-01T04:46:08;-1.40;99.90
16172;DHT22;8192;53.596;10.166;2023-03-01T04:48:37;-1.40;99.90
16172;DHT22;8192;53.596;10.166;2023-03-01T04:51:05;-1.40;99.90
16172;DHT22;8192;53.596;10.166;2023-03-01T04:53:34;-1.40;99.90
16172;DHT22;8192;53.596;10.166;2023-03-01T04:56:01;-1.40;99.90
16172;DHT22;8192;53.596;10.166;2023-03-01T04:58:30;-1.30;99.90
16172;DHT22;8192;53.596;10.166;2023-03-01T05:00:58;-1.30;99.90
16172;DHT22;8192;53.596;10.166;2023-03-01T05:03:25;-1.30;99.90
16172;DHT22;8192;53.596;10.166;2023-03-01T05:05:53;-1.10;99.90
16172;DHT22;8192;53.596;10.166;2023-03-01T05:08:20;-1.10;99.90
16172;DHT22;8192;53.596;10.166;2023-03-01T05:10:49;-1.10;99.90
16172;DHT22;8192;53.596;10.166;2023-03-01T05:13:18;-1.10;99.90
16172;DHT22;8192;53.596;10.166;2023-03-01T05:15:53;-1.10;99.90
16172;DHT22;8192;53.596;10.166;2023-03-01T05:18:21;-1.00;99.90
16172;DHT22;8192;53.596;10.166;2023-03-01T05:20:51;-1.00;99.90
16172;DHT22;8192;53.596;10.166;2023-03-01T05:23:21;-0.90;99.90
16172;DHT22;8192;53.596;10.166;2023-03-01T05:25:49;-0.90;99.90
16172;DHT22;8192;53.596;10.166;2023-03-01T05:28:19;-0.80;99.90
16172;DHT22;8192;53.596;10.166;2023-03-01T05:30:46;-0.80;99.90
16172;DHT22;8192;53.596;10.166;2023-03-01T05:33:14;-0.80;99.90
16172;DHT22;8192;53.596;10.166;2023-03-01T05:35:42;-0.70;99.90
16172;DHT22;8192;53.596;10.166;2023-03-01T05:38:09;-0.70;99.90
16172;DHT22;8192;53.596;10.166;2023-03-01T05:40:38;-0.70;99.90
16172;DHT22;8192;53.596;10.166;2023-03-01T05:43:06;-0.60;99.90
16172;DHT22;8192;53.596;10.166;2023-03-01T05:45:33;-0.60;99.90
16172;DHT22;8192;53.596;10.166;2023-03-01T05:48:02;-0.60;99.90
16172;DHT22;8192;53.596;10.166;2023-03-01T05:50:34;-0.60;99.90
16172;DHT22;8192;53.596;10.166;2023-03-01T05:53:10;-0.50;99.90
16172;DHT22;8192;53.596;10.166;2023-03-01T05:55:37;-0.50;99.90
16172;DHT22;8192;53.596;10.166;2023-03-01T05:58:06;-0.50;99.90
16172;DHT22;8192;53.596;10.166;2023-03-01T06:00:34;-0.60;99.90
16172;DHT22;8192;53.596;10.166;2023-03-01T06:03:01;-0.60;99.90
16172;DHT22;8192;53.596;10.166;2023-03-01T06:05:31;-0.50;99.90
16172;DHT22;8192;53.596;10.166;2023-03-01T06:07:58;-0.60;99.90
16172;DHT22;8192;53.596;10.166;2023-03-01T06:10:26;-0.60;99.90
16172;DHT22;8192;53.596;10.166;2023-03-01T06:12:56;-0.60;99.90
16172;DHT22;8192;53.596;10.166;2023-03-01T06:15:25;-0.60;99.90
16172;DHT22;8192;53.596;10.166;2023-03-01T06:21:18;-0.50;99.90
16172;DHT22;8192;53.596;10.166;2023-03-01T06:23:45;-0.50;99.90
16172;DHT22;8192;53.596;10.166;2023-03-01T06:29:35;-0.40;99.90
16172;DHT22;8192;53.596;10.166;2023-03-01T06:32:02;-0.20;99.90
16172;DHT22;8192;53.596;10.166;2023-03-01T06:37:58;0.00;99.90
16172;DHT22;8192;53.596;10.166;2023-03-01T06:40:26;0.00;99.90
16172;DHT22;8192;53.596;10.166;2023-03-01T06:42:58;0.10;99.90
16172;DHT22;8192;53.596;10.166;2023-03-01T06:48:49;0.20;99.90
16172;DHT22;8192;53.596;10.166;2023-03-01T06:51:17;0.30;99.90
16172;DHT22;8192;53.596;10.166;2023-03-01T06:53:47;0.40;99.90
16172;DHT22;8192;53.596;10.166;2023-03-01T06:56:15;0.50;99.90
16172;DHT22;8192;53.596;10.166;2023-03-01T06:58:43;0.60;99.90
16172;DHT22;8192;53.596;10.166;2023-03-01T07:01:10;0.60;99.90
16172;DHT22;8192;53.596;10.166;2023-03-01T07:03:37;0.70;99.90
16172;DHT22;8192;53.596;10.166;2023-03-01T07:06:05;0.80;99.90
16172;DHT22;8192;53.596;10.166;2023-03-01T07:11:58;1.00;99.90
16172;DHT22;8192;53.596;10.166;2023-03-01T07:14:25;1.00;99.90
16172;DHT22;8192;53.596;10.166;2023-03-01T07:16:53;1.20;99.90
16172;DHT22;8192;53.596;10.166;2023-03-01T07:22:43;1.50;99.90
16172;DHT22;8192;53.596;10.166;2023-03-01T07:25:10;1.80;99.90
16172;DHT22;8192;53.596;10.166;2023-03-01T07:27:39;2.30;99.90
16172;DHT22;8192;53.596;10.166;2023-03-01T07:30:08;2.60;99.90
16172;DHT22;8192;53.596;10.166;2023-03-01T07:32:35;2.70;99.90
16172;DHT22;8192;53.596;10.166;2023-03-01T07:35:03;2.80;99.90
16172;DHT22;8192;53.596;10.166;2023-03-01T07:37:30;2.70;99.90
16172;DHT22;8192;53.596;10.166;2023-03-01T07:39:57;2.70;99.90
16172;DHT22;8192;53.596;10.166;2023-03-01T07:42:24;2.60;99.90
16172;DHT22;8192;53.596;10.166;2023-03-01T07:44:54;2.50;99.90
16172;DHT22;8192;53.596;10.166;2023-03-01T07:47:22;2.50;99.90
16172;DHT22;8192;53.596;10.166;2023-03-01T07:49:49;2.60;99.90
16172;DHT22;8192;53.596;10.166;2023-03-01T07:52:16;2.60;99.90
16172;DHT22;8192;53.596;10.166;2023-03-01T07:54:43;2.60;99.90
16172;DHT22;8192;53.596;10.166;2023-03-01T07:57:11;2.70;99.90
16172;DHT22;8192;53.596;10.166;2023-03-01T07:59:38;2.70;99.90
16172;DHT22;8192;53.596;10.166;2023-03-01T08:02:07;2.70;99.90
16172;DHT22;8192;53.596;10.166;2023-03-01T08:04:36;2.70;99.90
16172;DHT22;8192;53.596;10.166;2023-03-01T08:07:05;2.70;99.90
16172;DHT22;8192;53.596;10.166;2023-03-01T08:09:34;2.80;99.90
16172;DHT22;8192;53.596;10.166;2023-03-01T08:12:03;2.90;99.90
16172;DHT22;8192;53.596;10.166;2023-03-01T08:14:31;3.00;99.90
16172;DHT22;8192;53.596;10.166;2023-03-01T08:16:58;2.90;99.90
16172;DHT22;8192;53.596;10.166;2023-03-01T08:19:26;2.80;99.90
16172;DHT22;8192;53.596;10.166;2023-03-01T08:21:53;3.00;99.90
16172;DHT22;8192;53.596;10.166;2023-03-01T08:24:23;3.20;99.90
16172;DHT22;8192;53.596;10.166;2023-03-01T08:26:51;3.40;99.90
16172;DHT22;8192;53.596;10.166;2023-03-01T08:29:18;3.40;99.90
16172;DHT22;8192;53.596;10.166;2023-03-01T08:31:45;3.40;99.90
16172;DHT22;8192;53.596;10.166;2023-03-01T08:34:17;3.30;99.90
16172;DHT22;8192;53.596;10.166;2023-03-01T08:36:58;3.50;99.90
16172;DHT22;8192;53.596;10.166;2023-03-01T08:39:27;3.70;99.90
16172;DHT22;8192;53.596;10.166;2023-03-01T08:41:55;3.80;99.90
16172;DHT22;8192;53.596;10.166;2023-03-01T08:44:24;3.90;99.90
16172;DHT22;8192;53.596;10.166;2023-03-01T08:46:52;3.90;99.90
16172;DHT22;8192;53.596;10.166;2023-03-01T08:49:21;3.90;99.90
16172;DHT22;8192;53.596;10.166;2023-03-01T08:51:49;4.00;99.90
16172;DHT22;8192;53.596;10.166;2023-03-01T08:54:21;4.10;99.90
16172;DHT22;8192;53.596;10.166;2023-03-01T08:56:49;4.40;99.90
16172;DHT22;8192;53.596;10.166;2023-03-01T08:59:18;4.70;99.90
16172;DHT22;8192;53.596;10.166;2023-03-01T09:01:46;4.80;99.90
16172;DHT22;8192;53.596;10.166;2023-03-01T09:04:14;4.60;99.90
16172;DHT22;8192;53.596;10.166;2023-03-01T09:06:42;4.50;99.90
16172;DHT22;8192;53.596;10.166;2023-03-01T09:09:13;4.60;99.90
16172;DHT22;8192;53.596;10.166;2023-03-01T09:11:47;4.70;99.90
16172;DHT22;8192;53.596;10.166;2023-03-01T09:14:15;4.90;99.90
16172;DHT22;8192;53.596;10.166;2023-03-01T09:16:43;5.00;99.90
16172;DHT22;8192;53.596;10.166;2023-03-01T09:19:11;4.90;99.90
16172;DHT22;8192;53.596;10.166;2023-03-01T09:21:38;4.90;99.90
16172;DHT22;8192;53.596;10.166;2023-03-01T09:24:20;4.80;99.90
16172;DHT22;8192;53.596;10.166;2023-03-01T09:26:53;4.60;99.90
16172;DHT22;8192;53.596;10.166;2023-03-01T09:29:21;4.70;99.90
16172;DHT22;8192;53.596;10.166;2023-03-01T09:31:49;4.80;99.90
16172;DHT22;8192;53.596;10.166;2023-03-01T09:34:16;5.10;99.90
16172;DHT22;8192;53.596;10.166;2023-03-01T09:36:49;5.20;99.90
16172;DHT22;8192;53.596;10.166;2023-03-01T09:39:17;5.30;99.90
16172;DHT22;8192;53.596;10.166;2023-03-01T09:41:52;5.10;99.90
16172;DHT22;8192;53.596;10.166;2023-03-01T09:44:29;5.10;99.90
16172;DHT22;8192;53.596;10.166;2023-03-01T09:46:58;4.80;99.90
16172;DHT22;8192;53.596;10.166;2023-03-01T09:49:28;4.90;99.90
16172;DHT22;8192;53.596;10.166;2023-03-01T09:52:00;5.10;99.90
16172;DHT22;8192;53.596;10.166;2023-03-01T09:54:31;5.20;99.90
16172;DHT22;8192;53.596;10.166;2023-03-01T09:57:16;5.10;99.90
16172;DHT22;8192;53.596;10.166;2023-03-01T09:59:55;5.00;99.90
16172;DHT22;8192;53.596;10.166;2023-03-01T10:02:33;5.00;99.90
16172;DHT22;8192;53.596;10.166;2023-03-01T10:05:14;5.10;99.90
16172;DHT22;8192;53.596;10.166;2023-03-01T10:07:48;5.10;99.90
16172;DHT22;8192;53.596;10.166;2023-03-01T10:10:28;5.10;99.90
16172;DHT22;8192;53.596;10.166;2023-03-01T10:13:06;5.00;99.90
16172;DHT22;8192;53.596;10.166;2023-03-01T10:15:41;5.00;99.90
16172;DHT22;8192;53.596;10.166;2023-03-01T10:18:13;4.90;99.90
16172;DHT22;8192;53.596;10.166;2023-03-01T10:20:46;5.00;99.90
16172;DHT22;8192;53.596;10.166;2023-03-01T10:23:13;5.00;99.90
16172;DHT22;8192;53.596;10.166;2023-03-01T10:25:47;5.10;99.90
16172;DHT22;8192;53.596;10.166;2023-03-01T10:28:25;5.20;99.90
16172;DHT22;8192;53.596;10.166;2023-03-01T10:30:58;5.30;99.90
16172;DHT22;8192;53.596;10.166;2023-03-01T10:33:27;5.30;99.90
16172;DHT22;8192;53.596;10.166;2023-03-01T10:35:56;5.30;99.90
16172;DHT22;8192;53.596;10.166;2023-03-01T10:38:24;5.30;99.90
16172;DHT22;8192;53.596;10.166;2023-03-01T10:40:54;5.20;99.90
16172;DHT22;8192;53.596;10.166;2023-03-01T10:43:24;5.30;99.90
16172;DHT22;8192;53.596;10.166;2023-03-01T10:45:52;5.30;99.90
16172;DHT22;8192;53.596;10.166;2023-03-01T10:48:21;5.30;99.90
16172;DHT22;8192;53.596;10.166;2023-03-01T10:50:51;5.30;99.90
16172;DHT22;8192;53.596;10.166;2023-03-01T10:53:34;5.40;99.90
16172;DHT22;8192;53.596;10.166;2023-03-01T10:56:04;5.30;99.90
16172;DHT22;8192;53.596;10.166;2023-03-01T10:58:35;5.30;99.90
16172;DHT22;8192;53.596;10.166;2023-03-01T11:01:05;5.30;99.90
16172;DHT22;8192;53.596;10.166;2023-03-01T11:03:35;5.50;99.90
16172;DHT22;8192;53.596;10.166;2023-03-01T11:06:05;5.40;99.90
16172;DHT22;8192;53.596;10.166;2023-03-01T11:08:36;5.40;99.90
16172;DHT22;8192;53.596;10.166;2023-03-01T11:11:21;5.50;99.90
16172;DHT22;8192;53.596;10.166;2023-03-01T11:13:58;5.60;99.90
16172;DHT22;8192;53.596;10.166;2023-03-01T11:16:35;5.60;99.90
16172;DHT22;8192;53.596;10.166;2023-03-01T11:19:19;5.70;99.90
16172;DHT22;8192;53.596;10.166;2023-03-01T11:21:58;5.90;99.90
16172;DHT22;8192;53.596;10.166;2023-03-01T11:24:35;6.00;99.90
16172;DHT22;8192;53.596;10.166;2023-03-01T11:27:07;6.10;99.90
16172;DHT22;8192;53.596;10.166;2023-03-01T11:29:39;6.10;99.90
16172;DHT22;8192;53.596;10.166;2023-03-01T11:32:08;6.20;99.90
16172;DHT22;8192;53.596;10.166;2023-03-01T11:34:42;6.30;99.90
16172;DHT22;8192;53.596;10.166;2023-03-01T11:37:33;6.30;99.90
16172;DHT22;8192;53.596;10.166;2023-03-01T11:40:13;6.30;99.90
16172;DHT22;8192;53.596;10.166;2023-03-01T11:42:48;6.40;99.90
16172;DHT22;8192;53.596;10.166;2023-03-01T11:45:23;6.50;99.90
16172;DHT22;8192;53.596;10.166;2023-03-01T11:48:02;6.70;99.90
16172;DHT22;8192;53.596;10.166;2023-03-01T11:50:39;6.80;99.90
16172;DHT22;8192;53.596;10.166;2023-03-01T11:53:31;6.80;99.90
16172;DHT22;8192;53.596;10.166;2023-03-01T11:56:22;6.80;99.90
16172;DHT22;8192;53.596;10.166;2023-03-01T11:59:13;6.70;99.90
16172;DHT22;8192;53.596;10.166;2023-03-01T12:02:00;6.70;99.90
16172;DHT22;8192;53.596;10.166;2023-03-01T12:05:05;6.80;99.90
16172;DHT22;8192;53.596;10.166;2023-03-01T12:07:46;7.00;99.90
16172;DHT22;8192;53.596;10.166;2023-03-01T12:10:27;7.10;99.90
16172;DHT22;8192;53.596;10.166;2023-03-01T12:13:10;7.20;99.90
16172;DHT22;8192;53.596;10.166;2023-03-01T12:15:58;7.30;99.90
16172;DHT22;8192;53.596;10.166;2023-03-01T12:18:52;7.40;99.90
16172;DHT22;8192;53.596;10.166;2023-03-01T12:21:30;7.50;99.90
16172;DHT22;8192;53.596;10.166;2023-03-01T12:27:11;7.60;99.90
16172;DHT22;8192;53.596;10.166;2023-03-01T12:29:44;7.50;99.90
16172;DHT22;8192;53.596;10.166;2023-03-01T12:32:27;7.60;99.90
16172;DHT22;8192;53.596;10.166;2023-03-01T12:38:05;7.70;99.90
16172;DHT22;8192;53.596;10.166;2023-03-01T12:40:54;7.70;99.90
16172;DHT22;8192;53.596;10.166;2023-03-01T12:43:29;7.80;99.90
16172;DHT22;8192;53.596;10.166;2023-03-01T12:46:25;7.90;99.90
16172;DHT22;8192;53.596;10.166;2023-03-01T12:49:02;8.00;99.90
16172;DHT22;8192;53.596;10.166;2023-03-01T12:51:35;8.10;99.90
16172;DHT22;8192;53.596;10.166;2023-03-01T12:54:07;8.00;99.90
16172;DHT22;8192;53.596;10.166;2023-03-01T12:56:38;8.10;99.90
16172;DHT22;8192;53.596;10.166;2023-03-01T12:59:12;8.20;99.90
16172;DHT22;8192;53.596;10.166;2023-03-01T13:01:45;8.10;99.90
16172;DHT22;8192;53.596;10.166;2023-03-01T13:04:24;8.10;99.90
16172;DHT22;8192;53.596;10.166;2023-03-01T13:07:13;8.10;99.90
16172;DHT22;8192;53.596;10.166;2023-03-01T13:09:49;8.00;99.90
16172;DHT22;8192;53.596;10.166;2023-03-01T13:12:44;7.80;99.90
16172;DHT22;8192;53.596;10.166;2023-03-01T13:15:31;7.80;99.90
16172;DHT22;8192;53.596;10.166;2023-03-01T13:18:00;7.80;99.90
16172;DHT22;8192;53.596;10.166;2023-03-01T13:20:31;8.00;99.90
16172;DHT22;8192;53.596;10.166;2023-03-01T13:23:11;8.00;99.90
16172;DHT22;8192;53.596;10.166;2023-03-01T13:26:01;8.10;99.90
16172;DHT22;8192;53.596;10.166;2023-03-01T13:28:59;8.20;99.90
16172;DHT22;8192;53.596;10.166;2023-03-01T13:32:00;8.20;99.90
16172;DHT22;8192;53.596;10.166;2023-03-01T13:34:57;8.40;99.90
16172;DHT22;8192;53.596;10.166;2023-03-01T13:37:27;8.40;99.90
16172;DHT22;8192;53.596;10.166;2023-03-01T13:39:58;8.30;99.90
16172;DHT22;8192;53.596;10.166;2023-03-01T13:42:41;8.20;99.90
16172;DHT22;8192;53.596;10.166;2023-03-01T13:45:19;8.10;99.90
16172;DHT22;8192;53.596;10.166;2023-03-01T13:47:49;8.10;99.90
16172;DHT22;8192;53.596;10.166;2023-03-01T13:50:20;8.10;99.90
16172;DHT22;8192;53.596;10.166;2023-03-01T13:52:53;8.20;99.90
16172;DHT22;8192;53.596;10.166;2023-03-01T13:55:32;8.10;99.90
16172;DHT22;8192;53.596;10.166;2023-03-01T13:58:13;8.10;99.90
16172;DHT22;8192;53.596;10.166;2023-03-01T14:00:42;8.20;99.90
16172;DHT22;8192;53.596;10.166;2023-03-01T14:03:12;8.20;99.90
16172;DHT22;8192;53.596;10.166;2023-03-01T14:05:40;8.20;99.90
16172;DHT22;8192;53.596;10.166;2023-03-01T14:08:20;8.10;99.90
16172;DHT22;8192;53.596;10.166;2023-03-01T14:11:24;8.10;99.70
16172;DHT22;8192;53.596;10.166;2023-03-01T14:14:08;8.10;98.90
16172;DHT22;8192;53.596;10.166;2023-03-01T14:16:44;8.10;98.80
16172;DHT22;8192;53.596;10.166;2023-03-01T14:19:16;8.00;97.80
16172;DHT22;8192;53.596;10.166;2023-03-01T14:21:45;8.00;96.50
16172;DHT22;8192;53.596;10.166;2023-03-01T14:24:18;8.00;95.60
16172;DHT22;8192;53.596;10.166;2023-03-01T14:26:49;8.00;94.40
16172;DHT22;8192;53.596;10.166;2023-03-01T14:29:25;8.00;94.00
16172;DHT22;8192;53.596;10.166;2023-03-01T14:31:52;8.00;93.30
16172;DHT22;8192;53.596;10.166;2023-03-01T14:34:21;8.10;92.70
16172;DHT22;8192;53.596;10.166;2023-03-01T14:36:49;8.10;92.10
16172;DHT22;8192;53.596;10.166;2023-03-01T14:39:18;8.10;92.20
16172;DHT22;8192;53.596;10.166;2023-03-01T14:41:48;8.10;90.90
16172;DHT22;8192;53.596;10.166;2023-03-01T14:44:19;8.00;89.30
16172;DHT22;8192;53.596;10.166;2023-03-01T14:46:52;7.90;86.70
16172;DHT22;8192;53.596;10.166;2023-03-01T14:49:22;7.90;86.20
16172;DHT22;8192;53.596;10.166;2023-03-01T14:51:55;7.90;86.70
16172;DHT22;8192;53.596;10.166;2023-03-01T14:54:25;7.90;86.60
16172;DHT22;8192;53.596;10.166;2023-03-01T14:56:59;8.00;85.00
16172;DHT22;8192;53.596;10.166;2023-03-01T14:59:27;8.30;86.20
16172;DHT22;8192;53.596;10.166;2023-03-01T15:01:57;8.40;85.10
16172;DHT22;8192;53.596;10.166;2023-03-01T15:04:25;8.40;83.50
16172;DHT22;8192;53.596;10.166;2023-03-01T15:06:54;8.20;83.60
16172;DHT22;8192;53.596;10.166;2023-03-01T15:09:22;8.10;83.30
16172;DHT22;8192;53.596;10.166;2023-03-01T15:11:49;7.90;84.10
16172;DHT22;8192;53.596;10.166;2023-03-01T15:14:29;7.80;82.30
16172;DHT22;8192;53.596;10.166;2023-03-01T15:17:21;7.70;83.70
16172;DHT22;8192;53.596;10.166;2023-03-01T15:19:50;7.60;84.50
16172;DHT22;8192;53.596;10.166;2023-03-01T15:22:17;7.50;85.20
16172;DHT22;8192;53.596;10.166;2023-03-01T15:24:47;7.40;85.50
16172;DHT22;8192;53.596;10.166;2023-03-01T15:27:18;7.50;86.90
16172;DHT22;8192;53.596;10.166;2023-03-01T15:30:02;7.50;87.20
16172;DHT22;8192;53.596;10.166;2023-03-01T15:32:32;7.50;87.90
16172;DHT22;8192;53.596;10.166;2023-03-01T15:35:01;7.50;88.20
16172;DHT22;8192;53.596;10.166;2023-03-01T15:37:43;7.40;89.10
16172;DHT22;8192;53.596;10.166;2023-03-01T15:40:19;7.40;89.60
16172;DHT22;8192;53.596;10.166;2023-03-01T15:42:49;7.30;89.70
16172;DHT22;8192;53.596;10.166;2023-03-01T15:45:25;7.30;90.40
16172;DHT22;8192;53.596;10.166;2023-03-01T15:47:55;7.30;90.60
16172;DHT22;8192;53.596;10.166;2023-03-01T15:50:26;7.20;91.10
16172;DHT22;8192;53.596;10.166;2023-03-01T15:52:53;7.30;91.80
16172;DHT22;8192;53.596;10.166;2023-03-01T15:55:23;7.30;92.20
16172;DHT22;8192;53.596;10.166;2023-03-01T15:57:59;7.40;92.60
16172;DHT22;8192;53.596;10.166;2023-03-01T16:00:28;7.40;92.40
16172;DHT22;8192;53.596;10.166;2023-03-01T16:02:56;7.40;92.50
16172;DHT22;8192;53.596;10.166;2023-03-01T16:05:27;7.40;92.70
16172;DHT22;8192;53.596;10.166;2023-03-01T16:07:56;7.30;92.90
16172;DHT22;8192;53.596;10.166;2023-03-01T16:10:23;7.30;93.20
16172;DHT22;8192;53.596;10.166;2023-03-01T16:12:51;7.20;92.70
16172;DHT22;8192;53.596;10.166;2023-03-01T16:15:21;7.10;92.30
16172;DHT22;8192;53.596;10.166;2023-03-01T16:17:51;7.00;91.60
16172;DHT22;8192;53.596;10.166;2023-03-01T16:20:19;6.80;90.90
16172;DHT22;8192;53.596;10.166;2023-03-01T16:22:47;6.60;90.70
16172;DHT22;8192;53.596;10.166;2023-03-01T16:25:16;6.50;90.00
16172;DHT22;8192;53.596;10.166;2023-03-01T16:27:44;6.40;89.80
16172;DHT22;8192;53.596;10.166;2023-03-01T16:30:13;6.30;88.50
16172;DHT22;8192;53.596;10.166;2023-03-01T16:32:42;6.20;88.70